createdAt,value
2022-12-19T00:00:27.224Z,102214.90
2022-12-19T00:01:34.244Z,102221.98
2022-12-19T00:02:37.486Z,102222.72
2022-12-19T00:03:40.850Z,102220.13
2022-12-19T00:04:44.029Z,102221.85
2022-12-19T00:05:47.223Z,102221.13
2022-12-19T00:06:50.596Z,102215.09
2022-12-19T00:07:53.701Z,102226.91
2022-12-19T00:08:59.861Z,102230.64
2022-12-19T00:10:03.216Z,102226.36
2022-12-19T00:11:06.459Z,102226.46
2022-12-19T00:12:11.372Z,102232.78
2022-12-19T00:13:14.699Z,102230.09
2022-12-19T00:14:17.813Z,102230.09
2022-12-19T00:15:20.921Z,102234.41
2022-12-19T00:16:26.873Z,102236.95
2022-12-19T00:17:30.122Z,102237.81
2022-12-19T00:18:33.438Z,102240.63
2022-12-19T00:19:36.546Z,102239.86
2022-12-19T00:20:40.105Z,102243.50
2022-12-19T00:21:43.374Z,102238.14
2022-12-19T00:22:46.651Z,102239.95
2022-12-19T00:23:50.354Z,102239.86
2022-12-19T00:24:53.753Z,102239.77
2022-12-19T00:26:11.915Z,102238.68
2022-12-19T00:27:15.188Z,102247.48
2022-12-19T00:28:18.254Z,102247.48
2022-12-19T00:29:23.244Z,102243.95
2022-12-19T00:30:27.495Z,102252.08
2022-12-19T00:31:34.192Z,102251.22
2022-12-19T00:32:37.646Z,102249.50
2022-12-19T00:33:43.413Z,102253.27
2022-12-19T00:34:45.924Z,102246.27
2022-12-19T00:35:49.155Z,102245.54
2022-12-19T00:36:52.436Z,102245.73
2022-12-19T00:37:55.886Z,102241.55
2022-12-19T00:39:00.443Z,102251.63
2022-12-19T00:40:04.140Z,102245.50
2022-12-19T00:41:15.701Z,102249.14
2022-12-19T00:42:18.899Z,102248.28
2022-12-19T00:43:22.174Z,102252.90
2022-12-19T00:44:25.446Z,102255.86
2022-12-19T00:45:29.267Z,102255.98
2022-12-19T00:46:34.983Z,102253.41
2022-12-19T00:47:38.208Z,102260.67
2022-12-19T00:48:42.254Z,102252.63
2022-12-19T00:49:45.554Z,102256.39
2022-12-19T00:51:01.871Z,102261.84
2022-12-19T00:52:05.196Z,102262.80
2022-12-19T00:53:08.417Z,102263.66
2022-12-19T00:54:11.626Z,102264.52
2022-12-19T00:55:18.929Z,102274.37
2022-12-19T00:56:23.120Z,102261.94
2022-12-19T00:57:26.329Z,102265.60
2022-12-19T00:58:32.142Z,102268.16
2022-12-19T00:59:34.504Z,102272.56
2022-12-19T01:00:37.586Z,102273.42
2022-12-19T01:01:41.847Z,102272.47
2022-12-19T01:02:45.440Z,102266.16
2022-12-19T01:04:19.158Z,102266.03
2022-12-19T01:04:53.956Z,102269.57
2022-12-19T01:05:57.110Z,102270.44
2022-12-19T01:07:01.989Z,102264.98
2022-12-19T01:08:07.457Z,102264.98
2022-12-19T01:09:11.768Z,102262.39
2022-12-19T01:10:15.018Z,102267.66
2022-12-19T01:11:19.968Z,102262.30
2022-12-19T01:12:41.631Z,102265.94
2022-12-19T01:13:44.869Z,102270.34
2022-12-19T01:14:48.051Z,102276.56
2022-12-19T01:15:51.193Z,102267.56
2022-12-19T01:16:54.475Z,102273.87
2022-12-19T01:17:57.705Z,102264.13
2022-12-19T01:19:00.769Z,102264.13
2022-12-19T01:20:06.767Z,102255.03
2022-12-19T01:21:11.020Z,102261.22
2022-12-19T01:22:14.406Z,102265.62
2022-12-19T01:23:17.780Z,102265.53
2022-12-19T01:24:20.822Z,102279.88
2022-12-19T01:25:25.444Z,102264.89
2022-12-19T01:26:28.602Z,102271.20
2022-12-19T01:27:31.706Z,102266.80
2022-12-19T01:28:34.892Z,102263.34
2022-12-19T01:29:51.855Z,102270.44
2022-12-19T01:30:43.088Z,102274.92
2022-12-19T01:31:46.395Z,102274.84
2022-12-19T01:32:50.007Z,102280.96
2022-12-19T01:33:53.139Z,102280.96
2022-12-19T01:34:58.575Z,102279.02
2022-12-19T01:36:03.447Z,102279.88
2022-12-19T01:37:07.438Z,102282.66
2022-12-19T01:38:13.589Z,102278.16
2022-12-19T01:39:16.577Z,102282.66
2022-12-19T01:40:21.415Z,102282.78
2022-12-19T01:41:24.773Z,102286.32
2022-12-19T01:42:32.532Z,102282.56
2022-12-19T01:43:58.921Z,102285.92
2022-12-19T01:45:17.595Z,102286.66
2022-12-19T01:46:27.082Z,102289.14
2022-12-19T01:47:34.339Z,102295.37
2022-12-19T01:48:40.996Z,102295.37
2022-12-19T01:49:44.691Z,102295.23
2022-12-19T01:51:01.457Z,102292.56
2022-12-19T01:52:10.331Z,102296.88
2022-12-19T01:53:14.263Z,102298.47
2022-12-19T01:54:35.971Z,102301.27
2022-12-19T01:55:40.878Z,102302.14
2022-12-19T01:56:47.689Z,102296.01
2022-12-19T01:57:52.077Z,102303.19
2022-12-19T01:59:06.339Z,102300.51
2022-12-19T02:00:04.325Z,102303.28
2022-12-19T02:01:09.352Z,102309.59
2022-12-19T02:02:31.122Z,102299.00
2022-12-19T02:03:36.358Z,102309.59
2022-12-19T02:04:41.355Z,102299.95
2022-12-19T02:05:45.378Z,102305.41
2022-12-19T02:06:50.714Z,102315.27
2022-12-19T02:07:54.251Z,102310.67
2022-12-19T02:08:57.456Z,102312.27
2022-12-19T02:10:00.560Z,102313.14
2022-12-19T02:11:05.551Z,102311.45
2022-12-19T02:12:08.952Z,102312.27
2022-12-19T02:13:14.024Z,102308.64
2022-12-19T02:14:17.541Z,102315.72
2022-12-19T02:15:20.990Z,102312.95
2022-12-19T02:16:29.976Z,102313.81
2022-12-19T02:17:56.161Z,102321.73
2022-12-19T02:19:28.601Z,102327.95
2022-12-19T02:20:54.881Z,102324.63
2022-12-19T02:23:37.739Z,102315.09
2022-12-19T02:24:53.363Z,102323.98
2022-12-19T02:26:08.923Z,102325.03
2022-12-19T02:29:01.053Z,102328.35
2022-12-19T02:30:10.561Z,102334.55
2022-12-19T02:31:34.056Z,102334.86
2022-12-19T02:32:46.620Z,102333.12
2022-12-19T02:34:05.589Z,102335.81
2022-12-19T02:35:47.137Z,102341.91
2022-12-19T02:36:55.601Z,102340.00
2022-12-19T02:38:13.162Z,102337.10
2022-12-19T02:39:33.873Z,102339.59
2022-12-19T02:40:46.911Z,102346.55
2022-12-19T02:41:57.564Z,102342.92
2022-12-19T02:43:02.646Z,102344.74
2022-12-19T02:44:06.398Z,102339.38
2022-12-19T02:45:13.684Z,102342.06
2022-12-19T02:46:19.532Z,102353.64
2022-12-19T02:47:22.639Z,102346.47
2022-12-19T02:48:26.650Z,102350.96
2022-12-19T02:49:31.415Z,102357.27
2022-12-19T02:50:37.023Z,102358.27
2022-12-19T02:51:40.240Z,102357.27
2022-12-19T02:52:46.707Z,102355.45
2022-12-19T02:53:50.087Z,102356.32
2022-12-19T02:54:56.378Z,102360.73
2022-12-19T02:56:15.460Z,102357.00
2022-12-19T02:57:51.662Z,102364.91
2022-12-19T03:00:17.917Z,102353.48
2022-12-19T03:01:44.821Z,102365.04
2022-12-19T03:02:57.898Z,102364.17
2022-12-19T03:04:06.044Z,102365.87
2022-12-19T03:05:28.403Z,102361.50
2022-12-19T03:06:35.529Z,102367.81
2022-12-19T03:07:43.466Z,102367.04
2022-12-19T03:08:51.703Z,102368.86
2022-12-19T03:10:04.442Z,102368.86
2022-12-19T03:11:10.673Z,102372.40
2022-12-19T03:12:20.163Z,102362.45
2022-12-19T03:13:35.720Z,102374.68
2022-12-19T03:14:39.008Z,102377.18
2022-12-19T03:15:43.731Z,102376.09
2022-12-19T03:16:47.255Z,102378.78
2022-12-19T03:17:50.773Z,102377.91
2022-12-19T03:18:54.768Z,102376.96
2022-12-19T03:19:57.844Z,102380.41
2022-12-19T03:21:10.796Z,102373.11
2022-12-19T03:22:13.987Z,102376.65
2022-12-19T03:23:17.758Z,102374.92
2022-12-19T03:24:21.308Z,102374.84
2022-12-19T03:25:25.673Z,102376.56
2022-12-19T03:26:32.379Z,102380.10
2022-12-19T03:27:39.036Z,102380.20
2022-12-19T03:28:48.159Z,102378.47
2022-12-19T03:29:57.749Z,102376.74
2022-12-19T03:31:02.556Z,102381.27
2022-12-19T03:32:09.382Z,102388.45
2022-12-19T03:33:15.367Z,102384.78
2022-12-19T03:34:43.317Z,102391.88
2022-12-19T03:35:47.942Z,102388.45
2022-12-19T03:36:54.833Z,102384.91
2022-12-19T03:38:01.599Z,102395.63
2022-12-19T03:39:08.374Z,102392.00
2022-12-19T03:40:15.947Z,102392.73
2022-12-19T03:41:23.434Z,102398.77
2022-12-19T03:42:46.898Z,102385.16
2022-12-19T03:43:50.211Z,102393.75
2022-12-19T03:44:57.324Z,102387.34
2022-12-19T03:46:13.680Z,102392.48
2022-12-19T03:47:26.195Z,102387.89
2022-12-19T03:48:45.032Z,102391.44
2022-12-19T03:49:49.013Z,102403.02
2022-12-19T03:51:16.996Z,102402.80
2022-12-19T03:54:19.636Z,102399.41
2022-12-19T03:55:26.355Z,102403.98
2022-12-19T03:56:39.002Z,102408.48
2022-12-19T03:57:57.842Z,102407.61
2022-12-19T03:59:04.513Z,102409.34
2022-12-19T04:00:17.110Z,102405.89
2022-12-19T04:01:21.254Z,102418.52
2022-12-19T04:02:25.435Z,102421.33
2022-12-19T04:03:31.243Z,102421.33
2022-12-19T04:04:37.875Z,102425.73
2022-12-19T04:05:43.468Z,102428.42
2022-12-19T04:06:48.736Z,102429.16
2022-12-19T04:07:55.309Z,102442.47
2022-12-19T04:08:59.719Z,102437.02
2022-12-19T04:10:06.387Z,102438.62
2022-12-19T04:11:13.499Z,102435.75
2022-12-19T04:13:33.832Z,102444.59
2022-12-19T04:14:38.399Z,102442.53
2022-12-19T04:16:01.670Z,102444.22
2022-12-19T04:17:32.741Z,102444.13
2022-12-19T04:18:36.195Z,102445.77
2022-12-19T04:20:01.094Z,102455.50
2022-12-19T04:21:10.717Z,102460.03
2022-12-19T04:22:37.041Z,102462.81
2022-12-19T04:23:49.836Z,102458.41
2022-12-19T04:24:54.896Z,102459.36
2022-12-19T04:26:01.686Z,102463.13
2022-12-19T04:27:07.976Z,102466.85
2022-12-19T04:28:20.753Z,102468.67
2022-12-19T04:29:25.607Z,102472.21
2022-12-19T04:30:29.244Z,102484.66
2022-12-19T04:31:32.487Z,102473.08
2022-12-19T04:32:37.386Z,102485.53
2022-12-19T04:33:40.663Z,102479.39
2022-12-19T04:34:43.937Z,102497.42
2022-12-19T04:35:47.094Z,102479.61
2022-12-19T04:36:51.259Z,102489.56
2022-12-19T04:37:54.608Z,102489.66
2022-12-19T04:38:57.874Z,102489.87
2022-12-19T04:40:01.287Z,102493.50
2022-12-19T04:41:04.982Z,102498.00
2022-12-19T04:42:08.266Z,102508.85
2022-12-19T04:43:11.487Z,102504.31
2022-12-19T04:44:14.902Z,102508.94
2022-12-19T04:45:18.131Z,102515.16
2022-12-19T04:46:21.636Z,102519.45
2022-12-19T04:47:24.763Z,102512.27
2022-12-19T04:48:27.846Z,102520.22
2022-12-19T04:49:31.058Z,102521.95
2022-12-19T04:50:34.912Z,102523.77
2022-12-19T04:51:38.636Z,102530.08
2022-12-19T04:52:41.830Z,102523.86
2022-12-19T04:53:45.071Z,102528.27
2022-12-19T04:54:48.378Z,102524.72
2022-12-19T04:55:54.251Z,102534.50
2022-12-19T04:56:57.549Z,102532.67
2022-12-19T04:58:04.609Z,102527.19
2022-12-19T04:59:07.828Z,102537.73
2022-12-19T05:00:12.327Z,102535.05
2022-12-19T05:01:15.444Z,102543.02
2022-12-19T05:02:18.645Z,102547.52
2022-12-19T05:03:21.928Z,102543.02
2022-12-19T05:04:25.165Z,102546.64
2022-12-19T05:05:28.359Z,102543.97
2022-12-19T05:06:31.537Z,102544.83
2022-12-19T05:07:34.566Z,102541.28
2022-12-19T05:08:38.606Z,102545.01
2022-12-19T05:09:41.825Z,102543.28
2022-12-19T05:10:44.979Z,102554.12
2022-12-19T05:11:48.724Z,102559.67
2022-12-19T05:12:53.690Z,102550.97
2022-12-19T05:13:59.182Z,102550.97
2022-12-19T05:15:02.386Z,102551.92
2022-12-19T05:16:08.159Z,102547.64
2022-12-19T05:17:11.191Z,102553.00
2022-12-19T05:18:14.347Z,102555.77
2022-12-19T05:19:17.995Z,102558.45
2022-12-19T05:20:21.289Z,102558.53
2022-12-19T05:21:24.814Z,102557.67
2022-12-19T05:22:28.042Z,102562.17
2022-12-19T05:23:31.734Z,102568.60
2022-12-19T05:24:34.917Z,102562.47
2022-12-19T05:25:38.101Z,102567.17
2022-12-19T05:26:41.192Z,102568.20
2022-12-19T05:27:44.261Z,102569.16
2022-12-19T05:28:48.294Z,102576.25
2022-12-19T05:29:51.350Z,102570.02
2022-12-19T05:31:09.881Z,102578.93
2022-12-19T05:32:13.047Z,102576.25
2022-12-19T05:33:16.201Z,102579.02
2022-12-19T05:34:19.132Z,102581.81
2022-12-19T05:35:22.086Z,102575.59
2022-12-19T05:36:32.178Z,102587.05
2022-12-19T05:37:30.813Z,102587.92
2022-12-19T05:38:34.709Z,102589.65
2022-12-19T05:39:37.819Z,102586.97
2022-12-19T05:40:42.805Z,102593.28
2022-12-19T05:41:48.928Z,102596.95
2022-12-19T05:42:50.871Z,102595.22
2022-12-19T05:43:55.871Z,102591.58
2022-12-19T05:44:59.061Z,102596.95
2022-12-19T05:46:04.307Z,102600.45
2022-12-19T05:47:07.953Z,102596.16
2022-12-19T05:48:11.057Z,102593.48
2022-12-19T05:49:15.604Z,102603.25
2022-12-19T05:50:18.904Z,102615.70
2022-12-19T05:51:23.965Z,102605.81
2022-12-19T05:52:27.217Z,102607.66
2022-12-19T05:53:30.460Z,102617.61
2022-12-19T05:54:33.709Z,102603.34
2022-12-19T05:55:36.891Z,102614.06
2022-12-19T05:56:40.002Z,102618.55
2022-12-19T05:57:43.328Z,102615.88
2022-12-19T05:58:46.889Z,102608.78
2022-12-19T05:59:50.108Z,102613.20
2022-12-19T06:00:56.819Z,102616.74
2022-12-19T06:01:58.432Z,102621.16
2022-12-19T06:03:03.147Z,102628.24
2022-12-19T06:04:07.439Z,102629.19
2022-12-19T06:05:10.585Z,102624.87
2022-12-19T06:06:16.634Z,102633.11
2022-12-19T06:07:21.197Z,102633.28
2022-12-19T06:08:24.678Z,102638.92
2022-12-19T06:09:27.771Z,102647.05
2022-12-19T06:10:31.209Z,102641.80
2022-12-19T06:11:34.414Z,102649.84
2022-12-19T06:12:37.621Z,102650.80
2022-12-19T06:13:41.354Z,102649.84
2022-12-19T06:14:44.552Z,102657.09
2022-12-19T06:15:47.613Z,102658.05
2022-12-19T06:16:50.773Z,102652.69
2022-12-19T06:17:54.492Z,102659.86
2022-12-19T06:18:57.703Z,102659.20
2022-12-19T06:20:00.877Z,102671.06
2022-12-19T06:21:06.605Z,102666.73
2022-12-19T06:22:09.859Z,102673.16
2022-12-19T06:23:13.059Z,102668.91
2022-12-19T06:24:16.911Z,102666.51
2022-12-19T06:25:20.236Z,102667.66
2022-12-19T06:26:23.618Z,102659.89
2022-12-19T06:27:26.812Z,102678.80
2022-12-19T06:28:31.004Z,102685.22
2022-12-19T06:29:34.199Z,102680.89
2022-12-19T06:30:37.486Z,102689.12
2022-12-19T06:31:40.697Z,102689.20
2022-12-19T06:32:43.870Z,102688.33
2022-12-19T06:33:47.249Z,102689.27
2022-12-19T06:35:05.859Z,102690.14
2022-12-19T06:36:04.033Z,102686.52
2022-12-19T06:37:08.520Z,102694.55
2022-12-19T06:38:11.754Z,102695.34
2022-12-19T06:39:15.396Z,102696.95
2022-12-19T06:40:20.273Z,102700.42
2022-12-19T06:41:41.812Z,102698.61
2022-12-19T06:42:47.415Z,102705.77
2022-12-19T06:43:53.621Z,102707.66
2022-12-19T06:44:56.409Z,102706.80
2022-12-19T06:45:59.725Z,102707.86
2022-12-19T06:47:02.855Z,102715.11
2022-12-19T06:48:06.320Z,102715.19
2022-12-19T06:49:10.670Z,102715.19
2022-12-19T06:50:13.900Z,102709.00
2022-12-19T06:51:17.013Z,102709.83
2022-12-19T06:52:20.220Z,102708.88
2022-12-19T06:53:23.303Z,102712.42
2022-12-19T06:54:26.495Z,102709.67
2022-12-19T06:55:29.595Z,102713.30
2022-12-19T06:56:37.561Z,102713.22
2022-12-19T06:57:42.535Z,102722.00
2022-12-19T06:58:46.396Z,102721.05
2022-12-19T06:59:49.588Z,102714.83
2022-12-19T07:00:53.338Z,102724.68
2022-12-19T07:02:16.747Z,102728.22
2022-12-19T07:03:23.523Z,102727.27
2022-12-19T07:04:51.367Z,102728.14
2022-12-19T07:05:54.765Z,102736.17
2022-12-19T07:06:58.740Z,102732.71
2022-12-19T07:08:02.426Z,102737.23
2022-12-19T07:09:05.886Z,102728.33
2022-12-19T07:10:09.827Z,102736.25
2022-12-19T07:11:12.907Z,102734.36
2022-12-19T07:12:16.111Z,102736.85
2022-12-19T07:13:19.344Z,102739.38
2022-12-19T07:14:22.716Z,102728.66
2022-12-19T07:15:26.491Z,102737.48
2022-12-19T07:16:30.064Z,102732.01
2022-12-19T07:17:33.883Z,102737.37
2022-12-19T07:18:39.588Z,102743.43
2022-12-19T07:19:42.828Z,102738.07
2022-12-19T07:20:46.609Z,102738.07
2022-12-19T07:21:50.034Z,102744.30
2022-12-19T07:22:53.412Z,102745.13
2022-12-19T07:23:56.621Z,102749.53
2022-12-19T07:25:02.110Z,102751.19
2022-12-19T07:26:05.738Z,102756.36
2022-12-19T07:27:08.910Z,102759.82
2022-12-19T07:28:12.669Z,102757.06
2022-12-19T07:29:15.933Z,102762.30
2022-12-19T07:30:19.795Z,102763.17
2022-12-19T07:49:24.054Z,102767.84
2022-12-19T07:50:27.488Z,102769.06
2022-12-19T07:51:30.648Z,102766.38
2022-12-19T07:52:34.152Z,102771.75
2022-12-19T07:53:37.104Z,102763.70
2022-12-19T07:54:40.446Z,102765.60
2022-12-19T07:55:44.092Z,102773.64
2022-12-19T07:56:47.333Z,102768.36
2022-12-19T07:57:50.591Z,102771.99
2022-12-19T07:58:53.645Z,102773.05
2022-12-19T07:59:56.818Z,102782.05
2022-12-19T08:01:00.957Z,102769.70
2022-12-19T08:06:59.520Z,102775.23
2022-12-19T08:08:02.827Z,102784.33
2022-12-19T08:09:05.997Z,102780.94
2022-12-19T08:10:11.889Z,102779.33
2022-12-19T08:11:17.608Z,102780.27
2022-12-19T08:12:20.852Z,102780.27
2022-12-19T08:13:24.024Z,102778.45
2022-12-19T08:14:27.788Z,102774.83
2022-12-19T08:15:31.291Z,102777.52
2022-12-19T08:16:55.552Z,102775.66
2022-12-19T08:17:40.926Z,102785.55
2022-12-19T08:18:44.467Z,102778.34
2022-12-19T08:19:47.730Z,102779.13
2022-12-19T08:20:50.908Z,102780.00
2022-12-19T08:21:54.200Z,102787.95
2022-12-19T08:22:57.410Z,102784.48
2022-12-19T08:24:00.642Z,102776.45
2022-12-19T08:25:04.200Z,102791.74
2022-12-19T08:26:10.677Z,102784.69
2022-12-19T08:27:15.654Z,102782.95
2022-12-19T08:28:18.874Z,102788.31
2022-12-19T08:29:22.059Z,102788.31
2022-12-19T08:30:25.386Z,102787.36
2022-12-19T08:31:28.960Z,102791.74
2022-12-19T08:32:32.127Z,102784.69
2022-12-19T08:33:36.205Z,102793.59
2022-12-19T08:34:40.199Z,102794.34
2022-12-19T08:35:43.447Z,102784.41
2022-12-19T08:36:46.918Z,102796.75
2022-12-19T08:37:50.116Z,102800.30
2022-12-19T08:38:53.614Z,102794.85
2022-12-19T08:39:56.841Z,102790.36
2022-12-19T08:41:00.145Z,102788.35
2022-12-19T08:42:03.311Z,102791.73
2022-12-19T08:43:06.457Z,102800.53
2022-12-19T08:44:11.947Z,102785.31
2022-12-19T08:45:15.233Z,102787.05
2022-12-19T08:46:20.142Z,102787.83
2022-12-19T08:47:23.312Z,102785.90
2022-12-19T08:48:26.891Z,102793.78
2022-12-19T08:49:30.071Z,102795.39
2022-12-19T08:50:33.694Z,102800.59
2022-12-19T08:51:36.734Z,102792.43
2022-12-19T08:52:39.844Z,102798.66
2022-12-19T08:53:44.284Z,102789.59
2022-12-19T08:54:47.696Z,102792.19
2022-12-19T08:55:55.448Z,102791.12
2022-12-19T08:56:58.829Z,102788.44
2022-12-19T08:58:01.978Z,102787.48
2022-12-19T08:59:05.931Z,102781.18
2022-12-19T09:00:10.271Z,102803.38
2022-12-19T09:01:18.525Z,102792.66
2022-12-19T09:02:21.951Z,102791.70
2022-12-19T09:03:25.679Z,102787.20
2022-12-19T09:05:57.865Z,102783.58
2022-12-19T09:05:59.417Z,102784.36
2022-12-19T09:06:40.187Z,102785.97
2022-12-19T09:07:43.403Z,102777.64
2022-12-19T09:08:46.456Z,102778.34
2022-12-19T09:09:49.654Z,102793.20
2022-12-19T09:11:03.944Z,102791.18
2022-12-19T09:12:07.109Z,102788.41
2022-12-19T09:13:10.156Z,102785.81
2022-12-19T09:14:13.366Z,102788.58
2022-12-19T09:15:18.309Z,102786.84
2022-12-19T09:16:23.136Z,102786.97
2022-12-19T09:17:27.584Z,102790.39
2022-12-19T09:18:34.453Z,102788.58
2022-12-19T09:19:37.636Z,102790.31
2022-12-19T09:20:41.673Z,102794.64
2022-12-19T09:21:44.846Z,102790.14
2022-12-19T09:22:47.896Z,102792.70
2022-12-19T09:23:53.698Z,102791.75
2022-12-19T09:24:56.934Z,102799.72
2022-12-19T09:26:07.161Z,102794.27
2022-12-19T09:27:10.607Z,102784.28
2022-12-19T09:28:29.193Z,102797.61
2022-12-19T09:29:20.424Z,102794.06
2022-12-19T09:30:23.900Z,102800.30
2022-12-19T09:31:27.968Z,102793.20
2022-12-19T09:32:31.179Z,102801.25
2022-12-19T09:33:41.190Z,102802.20
2022-12-19T09:34:40.568Z,102798.66
2022-12-19T09:35:55.571Z,102805.00
2022-12-19T09:37:00.038Z,102806.81
2022-12-19T09:38:03.251Z,102814.00
2022-12-19T09:39:06.504Z,102821.19
2022-12-19T09:40:15.089Z,102816.69
2022-12-19T09:41:24.879Z,102809.50
2022-12-19T09:42:48.324Z,102810.16
2022-12-19T09:43:55.107Z,102816.31
2022-12-19T09:45:32.097Z,102813.42
2022-12-19T09:46:39.483Z,102804.42
2022-12-19T09:47:45.984Z,102805.20
2022-12-19T09:48:55.199Z,102803.35
2022-12-19T09:49:59.357Z,102801.53
2022-12-19T09:51:31.748Z,102806.73
2022-12-19T09:52:39.203Z,102805.78
2022-12-19T09:54:08.572Z,102803.09
2022-12-19T09:55:18.393Z,102804.91
2022-12-19T09:56:23.300Z,102803.96
2022-12-19T09:57:38.694Z,102798.48
2022-12-19T09:58:48.313Z,102808.26
2022-12-19T09:59:57.483Z,102810.86
2022-12-19T10:01:04.443Z,102813.54
2022-12-19T10:02:29.590Z,102811.72
2022-12-19T10:03:41.821Z,102809.91
2022-12-19T10:04:51.766Z,102804.42
2022-12-19T10:06:30.036Z,102807.88
2022-12-19T10:07:40.181Z,102804.33
2022-12-19T10:08:27.317Z,102812.47
2022-12-19T10:12:00.249Z,102805.48
2022-12-19T10:12:42.763Z,102805.41
2022-12-19T10:12:51.952Z,102812.47
2022-12-19T10:14:18.736Z,102811.72
2022-12-19T10:15:42.214Z,102804.62
2022-12-19T10:17:22.658Z,102818.99
2022-12-19T10:18:04.910Z,102817.38
2022-12-19T10:19:11.675Z,102813.05
2022-12-19T10:20:21.358Z,102820.23
2022-12-19T10:21:58.900Z,102824.66
2022-12-19T10:22:39.614Z,102828.20
2022-12-19T10:24:01.539Z,102828.20
2022-12-19T10:25:29.397Z,102823.70
2022-12-19T10:26:42.199Z,102824.45
2022-12-19T10:27:58.605Z,102827.91
2022-12-19T10:29:08.919Z,102819.86
2022-12-19T10:30:22.360Z,102818.04
2022-12-19T10:31:44.327Z,102818.91
2022-12-19T10:33:19.991Z,102827.83
2022-12-19T10:34:26.569Z,102831.38
2022-12-19T10:35:36.847Z,102829.64
2022-12-19T10:37:13.295Z,102840.30
2022-12-19T10:37:52.233Z,102836.74
2022-12-19T10:39:07.862Z,102837.61
2022-12-19T10:40:25.629Z,102823.20
2022-12-19T10:41:31.460Z,102822.34
2022-12-19T10:42:50.844Z,102822.34
2022-12-19T10:44:05.327Z,102826.67
2022-12-19T10:45:15.240Z,102834.42
2022-12-19T10:46:42.636Z,102831.66
2022-12-19T10:47:57.313Z,102833.19
2022-12-19T10:49:02.047Z,102830.33
2022-12-19T10:50:09.505Z,102831.08
2022-12-19T10:51:13.345Z,102823.80
2022-12-19T10:52:20.095Z,102825.53
2022-12-19T10:53:29.396Z,102823.71
2022-12-19T10:54:42.112Z,102828.96
2022-12-19T10:55:51.077Z,102828.09
2022-12-19T10:56:55.286Z,102833.59
2022-12-19T10:57:59.486Z,102829.17
2022-12-19T10:59:03.182Z,102838.95
2022-12-19T11:00:16.515Z,102833.67
2022-12-19T11:01:26.604Z,102843.34
2022-12-19T11:02:45.290Z,102837.97
2022-12-19T11:04:08.861Z,102840.56
2022-12-19T11:05:27.299Z,102841.43
2022-12-19T11:06:53.726Z,102845.94
2022-12-19T11:08:09.489Z,102848.70
2022-12-19T11:09:21.991Z,102857.75
2022-12-19T11:11:40.430Z,102850.73
2022-12-19T11:15:45.426Z,102849.78
2022-12-19T11:17:43.636Z,102850.82
2022-12-19T11:19:46.012Z,102849.12
2022-12-19T11:21:01.541Z,102846.44
2022-12-19T11:24:01.181Z,102843.55
2022-12-19T11:24:20.585Z,102847.18
2022-12-19T11:27:32.142Z,102840.77
2022-12-19T11:29:25.173Z,102847.01
2022-12-19T11:29:30.009Z,102843.34
2022-12-19T11:29:33.807Z,102832.59
2022-12-19T11:29:36.867Z,102844.33
2022-12-19T11:29:41.596Z,102850.56
2022-12-19T11:30:37.606Z,102836.06
2022-12-19T11:30:41.367Z,102833.20
2022-12-19T11:30:48.854Z,102838.95
2022-12-19T11:32:00.187Z,102837.32
2022-12-19T11:32:35.856Z,102841.62
2022-12-19T11:33:15.217Z,102843.27
2022-12-19T11:34:20.759Z,102845.83
2022-12-19T11:35:36.905Z,102845.66
2022-12-19T11:36:34.374Z,102859.00
2022-12-19T11:37:41.126Z,102849.95
2022-12-19T11:38:53.763Z,102854.37
2022-12-19T11:40:09.497Z,102855.14
2022-12-19T11:41:16.408Z,102859.66
2022-12-19T11:42:32.184Z,102856.19
2022-12-19T11:43:44.315Z,102855.53
2022-12-19T11:45:07.157Z,102857.35
2022-12-19T11:46:26.103Z,102860.13
2022-12-19T11:47:42.120Z,102863.88
2022-12-19T11:48:51.892Z,102860.33
2022-12-19T11:49:58.858Z,102863.88
2022-12-19T11:51:39.582Z,102864.75
2022-12-19T11:54:01.140Z,102881.81
2022-12-19T11:55:24.372Z,102878.27
2022-12-19T11:56:29.029Z,102886.32
2022-12-19T11:57:32.302Z,102881.91
2022-12-19T11:58:35.534Z,102884.59
2022-12-19T11:59:40.316Z,102888.14
2022-12-19T12:00:56.191Z,102886.32
2022-12-19T12:02:11.931Z,102883.55
2022-12-19T12:03:35.398Z,102883.43
2022-12-19T12:04:56.786Z,102886.98
2022-12-19T12:06:02.284Z,102895.81
2022-12-19T12:07:12.764Z,102885.94
2022-12-19T12:09:44.875Z,102894.00
2022-12-19T12:12:59.195Z,102897.64
2022-12-19T12:13:38.095Z,102894.95
2022-12-19T12:20:31.338Z,102903.01
2022-12-19T12:23:02.982Z,102903.88
2022-12-19T12:27:48.179Z,102910.11
2022-12-19T12:28:00.540Z,102910.11
2022-12-19T12:31:02.601Z,102919.91
2022-12-19T13:20:54.511Z,102957.12
2022-12-19T13:22:10.265Z,102965.50
2022-12-19T13:23:32.346Z,102964.29
2022-12-19T13:26:24.106Z,102969.48
2022-12-19T13:27:36.529Z,102973.64
2022-12-19T13:28:41.416Z,102976.22
2022-12-19T13:30:03.319Z,102977.09
2022-12-19T13:31:18.480Z,102978.81
2022-12-19T13:32:16.837Z,102978.74
2022-12-19T13:33:20.040Z,102975.19
2022-12-19T13:34:26.777Z,102967.94
2022-12-19T13:39:24.118Z,102972.23
2022-12-19T13:39:54.777Z,102973.98
2022-12-19T13:39:55.537Z,102977.45
2022-12-19T13:40:00.504Z,102980.13
2022-12-19T13:40:56.518Z,102978.31
2022-12-19T13:42:36.382Z,102975.71
2022-12-19T13:43:48.716Z,102974.84
2022-12-19T13:44:53.721Z,102978.47
2022-12-19T13:46:05.207Z,102976.73
2022-12-19T13:47:11.934Z,102988.33
2022-12-19T13:48:33.486Z,102978.47
2022-12-19T13:49:36.798Z,102985.57
2022-12-19T13:50:41.507Z,102991.80
2022-12-19T13:51:57.368Z,102990.94
2022-12-19T13:53:01.562Z,102996.11
2022-12-19T13:54:06.531Z,102992.48
2022-12-19T13:55:14.410Z,102991.61
2022-12-19T13:56:19.291Z,102995.95
2022-12-19T13:57:31.162Z,102995.95
2022-12-19T14:00:06.577Z,103002.43
2022-12-19T14:01:25.562Z,102998.63
2022-12-19T14:02:44.764Z,102999.58
2022-12-19T14:03:43.280Z,103002.27
2022-12-19T14:04:46.438Z,103003.20
2022-12-19T14:06:16.720Z,103010.31
2022-12-19T14:07:03.992Z,103007.62
2022-12-19T14:08:07.932Z,103015.67
2022-12-19T14:11:33.707Z,103016.54
2022-12-19T14:11:39.874Z,103021.91
2022-12-19T14:13:43.562Z,103026.48
2022-12-19T14:13:46.670Z,103020.25
2022-12-19T14:14:40.519Z,103031.84
2022-12-19T14:15:51.991Z,103020.36
2022-12-19T14:16:54.957Z,103028.48
2022-12-19T14:18:08.321Z,103032.19
2022-12-19T14:19:24.734Z,103029.61
2022-12-19T14:22:02.716Z,103031.42
2022-12-19T14:22:06.239Z,103027.95
2022-12-19T14:22:40.311Z,103029.01
2022-12-19T14:23:44.658Z,103022.78
2022-12-19T14:26:05.958Z,103027.27
2022-12-19T14:28:18.619Z,103021.91
2022-12-19T14:28:25.685Z,103027.27
2022-12-19T14:28:30.250Z,103026.41
2022-12-19T14:30:26.204Z,103025.45
2022-12-19T14:30:49.965Z,103022.86
2022-12-19T14:31:58.615Z,103022.06